sensor_id;sensor_type;location;lat;lon;timestamp;P1;durP1;ratioP1;P2;durP2;ratioP2
26181;SDS011;13927;51.534;11.866;2023-02-08T00:00:47;109.28;;;39.33;;
26181;SDS011;13927;51.534;11.866;2023-02-08T00:03:13;110.07;;;39.78;;
26181;SDS011;13927;51.534;11.866;2023-02-08T00:05:39;118.10;;;39.47;;
26181;SDS011;13927;51.534;11.866;2023-02-08T00:08:05;112.38;;;40.53;;
26181;SDS011;13927;51.534;11.866;2023-02-08T00:10:34;104.45;;;40.67;;
26181;SDS011;13927;51.534;11.866;2023-02-08T00:13:00;111.60;;;41.58;;
26181;SDS011;13927;51.534;11.866;2023-02-08T00:15:26;123.78;;;42.50;;
26181;SDS011;13927;51.534;11.866;2023-02-08T00:17:52;108.70;;;39.20;;
26181;SDS011;13927;51.534;11.866;2023-02-08T00:20:17;108.30;;;39.88;;
26181;SDS011;13927;51.534;11.866;2023-02-08T00:22:44;132.45;;;39.30;;
26181;SDS011;13927;51.534;11.866;2023-02-08T00:25:10;115.35;;;39.33;;
26181;SDS011;13927;51.534;11.866;2023-02-08T00:27:36;149.10;;;39.92;;
26181;SDS011;13927;51.534;11.866;2023-02-08T00:30:02;118.22;;;42.88;;
26181;SDS011;13927;51.534;11.866;2023-02-08T00:32:31;110.95;;;37.13;;
26181;SDS011;13927;51.534;11.866;2023-02-08T00:34:57;113.70;;;39.38;;
26181;SDS011;13927;51.534;11.866;2023-02-08T00:37:23;123.75;;;39.05;;
26181;SDS011;13927;51.534;11.866;2023-02-08T00:39:49;100.88;;;36.85;;
26181;SDS011;13927;51.534;11.866;2023-02-08T00:42:14;119.32;;;38.55;;
26181;SDS011;13927;51.534;11.866;2023-02-08T00:44:40;102.05;;;38.72;;
26181;SDS011;13927;51.534;11.866;2023-02-08T00:47:06;133.20;;;40.53;;
26181;SDS011;13927;51.534;11.866;2023-02-08T00:49:31;106.55;;;38.45;;
26181;SDS011;13927;51.534;11.866;2023-02-08T00:51:57;139.60;;;38.72;;
26181;SDS011;13927;51.534;11.866;2023-02-08T00:54:24;119.20;;;37.47;;
26181;SDS011;13927;51.534;11.866;2023-02-08T00:56:50;96.25;;;36.88;;
26181;SDS011;13927;51.534;11.866;2023-02-08T00:59:15;113.10;;;36.40;;
26181;SDS011;13927;51.534;11.866;2023-02-08T01:01:41;106.18;;;38.55;;
26181;SDS011;13927;51.534;11.866;2023-02-08T01:04:07;90.60;;;36.63;;
26181;SDS011;13927;51.534;11.866;2023-02-08T01:06:34;87.47;;;36.67;;
26181;SDS011;13927;51.534;11.866;2023-02-08T01:08:59;95.43;;;36.05;;
26181;SDS011;13927;51.534;11.866;2023-02-08T01:11:25;97.22;;;36.28;;
26181;SDS011;13927;51.534;11.866;2023-02-08T01:13:52;147.52;;;39.00;;
26181;SDS011;13927;51.534;11.866;2023-02-08T01:16:23;153.27;;;42.63;;
26181;SDS011;13927;51.534;11.866;2023-02-08T01:18:52;107.88;;;38.85;;
26181;SDS011;13927;51.534;11.866;2023-02-08T01:21:28;98.00;;;39.50;;
26181;SDS011;13927;51.534;11.866;2023-02-08T01:23:57;111.68;;;39.95;;
26181;SDS011;13927;51.534;11.866;2023-02-08T01:26:24;130.93;;;41.42;;
26181;SDS011;13927;51.534;11.866;2023-02-08T01:28:51;112.85;;;39.70;;
26181;SDS011;13927;51.534;11.866;2023-02-08T01:31:20;101.95;;;37.30;;
26181;SDS011;13927;51.534;11.866;2023-02-08T01:33:49;99.57;;;38.42;;
26181;SDS011;13927;51.534;11.866;2023-02-08T01:36:15;96.00;;;36.92;;
26181;SDS011;13927;51.534;11.866;2023-02-08T01:38:42;106.57;;;37.13;;
26181;SDS011;13927;51.534;11.866;2023-02-08T01:41:15;96.70;;;35.88;;
26181;SDS011;13927;51.534;11.866;2023-02-08T01:44:04;110.57;;;39.42;;
26181;SDS011;13927;51.534;11.866;2023-02-08T01:46:38;107.68;;;39.63;;
26181;SDS011;13927;51.534;11.866;2023-02-08T01:49:14;129.75;;;41.83;;
26181;SDS011;13927;51.534;11.866;2023-02-08T01:51:54;117.95;;;42.17;;
26181;SDS011;13927;51.534;11.866;2023-02-08T01:54:25;106.22;;;42.35;;
26181;SDS011;13927;51.534;11.866;2023-02-08T01:56:56;106.93;;;39.90;;
26181;SDS011;13927;51.534;11.866;2023-02-08T01:59:23;104.00;;;41.03;;
26181;SDS011;13927;51.534;11.866;2023-02-08T02:01:56;113.57;;;40.33;;
26181;SDS011;13927;51.534;11.866;2023-02-08T02:04:24;98.80;;;38.58;;
26181;SDS011;13927;51.534;11.866;2023-02-08T02:06:54;92.57;;;36.40;;
26181;SDS011;13927;51.534;11.866;2023-02-08T02:12:12;77.38;;;32.00;;
26181;SDS011;13927;51.534;11.866;2023-02-08T02:14:39;88.63;;;32.78;;
26181;SDS011;13927;51.534;11.866;2023-02-08T02:17:05;85.13;;;33.92;;
26181;SDS011;13927;51.534;11.866;2023-02-08T02:19:44;86.95;;;33.47;;
26181;SDS011;13927;51.534;11.866;2023-02-08T02:37:33;76.97;;;31.58;;
26181;SDS011;13927;51.534;11.866;2023-02-08T02:43:04;74.95;;;31.65;;
26181;SDS011;13927;51.534;11.866;2023-02-08T02:46:32;70.53;;;30.83;;
26181;SDS011;13927;51.534;11.866;2023-02-08T02:52:20;74.03;;;31.48;;
26181;SDS011;13927;51.534;11.866;2023-02-08T02:54:50;77.05;;;34.25;;
26181;SDS011;13927;51.534;11.866;2023-02-08T02:57:30;57.55;;;24.90;;
26181;SDS011;13927;51.534;11.866;2023-02-08T02:59:59;69.10;;;32.08;;
26181;SDS011;13927;51.534;11.866;2023-02-08T03:02:31;66.82;;;31.35;;
26181;SDS011;13927;51.534;11.866;2023-02-08T03:04:56;74.88;;;32.15;;
26181;SDS011;13927;51.534;11.866;2023-02-08T03:10:04;71.45;;;32.30;;
26181;SDS011;13927;51.534;11.866;2023-02-08T03:12:57;68.00;;;32.10;;
26181;SDS011;13927;51.534;11.866;2023-02-08T03:25:04;69.70;;;32.85;;
26181;SDS011;13927;51.534;11.866;2023-02-08T03:27:38;67.88;;;31.85;;
26181;SDS011;13927;51.534;11.866;2023-02-08T03:30:54;83.43;;;33.97;;
26181;SDS011;13927;51.534;11.866;2023-02-08T03:34:08;73.05;;;33.20;;
26181;SDS011;13927;51.534;11.866;2023-02-08T03:39:29;72.68;;;33.50;;
26181;SDS011;13927;51.534;11.866;2023-02-08T03:42:00;73.55;;;33.83;;
26181;SDS011;13927;51.534;11.866;2023-02-08T03:44:35;77.13;;;34.25;;
26181;SDS011;13927;51.534;11.866;2023-02-08T03:47:15;121.88;;;36.10;;
26181;SDS011;13927;51.534;11.866;2023-02-08T03:49:52;83.78;;;34.80;;
26181;SDS011;13927;51.534;11.866;2023-02-08T03:52:22;76.00;;;33.72;;
26181;SDS011;13927;51.534;11.866;2023-02-08T03:54:51;92.63;;;36.83;;
26181;SDS011;13927;51.534;11.866;2023-02-08T03:57:28;89.88;;;36.20;;
26181;SDS011;13927;51.534;11.866;2023-02-08T04:00:00;87.63;;;35.20;;
26181;SDS011;13927;51.534;11.866;2023-02-08T04:02:32;93.03;;;35.45;;
26181;SDS011;13927;51.534;11.866;2023-02-08T04:05:03;88.85;;;37.13;;
26181;SDS011;13927;51.534;11.866;2023-02-08T04:07:30;95.70;;;36.05;;
26181;SDS011;13927;51.534;11.866;2023-02-08T04:09:55;89.75;;;37.78;;
26181;SDS011;13927;51.534;11.866;2023-02-08T04:12:21;93.60;;;37.10;;
26181;SDS011;13927;51.534;11.866;2023-02-08T04:14:47;74.60;;;36.08;;
26181;SDS011;13927;51.534;11.866;2023-02-08T04:17:13;86.25;;;39.33;;
26181;SDS011;13927;51.534;11.866;2023-02-08T04:19:38;78.22;;;37.97;;
26181;SDS011;13927;51.534;11.866;2023-02-08T04:22:04;87.72;;;38.45;;
26181;SDS011;13927;51.534;11.866;2023-02-08T04:24:30;83.47;;;37.90;;
26181;SDS011;13927;51.534;11.866;2023-02-08T04:26:55;87.00;;;37.63;;
26181;SDS011;13927;51.534;11.866;2023-02-08T04:29:21;89.20;;;37.70;;
26181;SDS011;13927;51.534;11.866;2023-02-08T04:31:47;87.82;;;35.42;;
26181;SDS011;13927;51.534;11.866;2023-02-08T04:34:13;88.03;;;38.47;;
26181;SDS011;13927;51.534;11.866;2023-02-08T04:36:38;83.18;;;35.05;;
26181;SDS011;13927;51.534;11.866;2023-02-08T04:39:04;84.65;;;35.65;;
26181;SDS011;13927;51.534;11.866;2023-02-08T04:41:30;90.00;;;37.40;;
26181;SDS011;13927;51.534;11.866;2023-02-08T04:43:55;85.80;;;35.45;;
26181;SDS011;13927;51.534;11.866;2023-02-08T04:46:21;88.65;;;35.28;;
26181;SDS011;13927;51.534;11.866;2023-02-08T04:48:47;77.40;;;35.72;;
26181;SDS011;13927;51.534;11.866;2023-02-08T04:51:13;75.68;;;34.17;;
26181;SDS011;13927;51.534;11.866;2023-02-08T04:53:38;84.32;;;36.88;;
26181;SDS011;13927;51.534;11.866;2023-02-08T04:56:04;79.53;;;36.03;;
26181;SDS011;13927;51.534;11.866;2023-02-08T04:58:30;81.47;;;35.47;;
26181;SDS011;13927;51.534;11.866;2023-02-08T05:00:55;84.28;;;36.42;;
26181;SDS011;13927;51.534;11.866;2023-02-08T05:03:21;89.07;;;36.83;;
26181;SDS011;13927;51.534;11.866;2023-02-08T05:05:54;75.30;;;34.92;;
26181;SDS011;13927;51.534;11.866;2023-02-08T05:08:22;83.20;;;35.65;;
26181;SDS011;13927;51.534;11.866;2023-02-08T05:10:48;81.22;;;36.97;;
26181;SDS011;13927;51.534;11.866;2023-02-08T05:13:13;79.55;;;34.88;;
26181;SDS011;13927;51.534;11.866;2023-02-08T05:15:39;87.22;;;36.28;;
26181;SDS011;13927;51.534;11.866;2023-02-08T05:18:05;71.57;;;33.13;;
26181;SDS011;13927;51.534;11.866;2023-02-08T05:20:31;80.68;;;35.63;;
26181;SDS011;13927;51.534;11.866;2023-02-08T05:22:57;80.88;;;35.95;;
26181;SDS011;13927;51.534;11.866;2023-02-08T05:25:23;78.40;;;34.72;;
26181;SDS011;13927;51.534;11.866;2023-02-08T05:27:49;82.82;;;35.65;;
26181;SDS011;13927;51.534;11.866;2023-02-08T05:30:15;83.25;;;37.38;;
26181;SDS011;13927;51.534;11.866;2023-02-08T05:32:41;83.88;;;37.30;;
26181;SDS011;13927;51.534;11.866;2023-02-08T05:35:07;79.78;;;35.67;;
26181;SDS011;13927;51.534;11.866;2023-02-08T05:37:33;84.95;;;38.58;;
26181;SDS011;13927;51.534;11.866;2023-02-08T05:39:59;97.82;;;37.85;;
26181;SDS011;13927;51.534;11.866;2023-02-08T05:42:24;110.45;;;38.17;;
26181;SDS011;13927;51.534;11.866;2023-02-08T05:44:51;84.35;;;37.53;;
26181;SDS011;13927;51.534;11.866;2023-02-08T05:47:16;121.57;;;38.45;;
26181;SDS011;13927;51.534;11.866;2023-02-08T05:49:42;101.13;;;36.47;;
26181;SDS011;13927;51.534;11.866;2023-02-08T05:52:08;98.22;;;36.83;;
26181;SDS011;13927;51.534;11.866;2023-02-08T05:54:34;92.30;;;37.88;;
26181;SDS011;13927;51.534;11.866;2023-02-08T05:57:00;108.85;;;37.50;;
26181;SDS011;13927;51.534;11.866;2023-02-08T05:59:25;93.30;;;37.80;;
26181;SDS011;13927;51.534;11.866;2023-02-08T06:01:51;96.47;;;38.67;;
26181;SDS011;13927;51.534;11.866;2023-02-08T06:04:17;97.00;;;38.97;;
26181;SDS011;13927;51.534;11.866;2023-02-08T06:06:43;94.63;;;39.85;;
26181;SDS011;13927;51.534;11.866;2023-02-08T06:09:08;97.28;;;38.78;;
26181;SDS011;13927;51.534;11.866;2023-02-08T06:11:34;96.03;;;39.10;;
26181;SDS011;13927;51.534;11.866;2023-02-08T06:14:00;91.63;;;39.55;;
26181;SDS011;13927;51.534;11.866;2023-02-08T06:16:27;100.32;;;41.80;;
26181;SDS011;13927;51.534;11.866;2023-02-08T06:18:53;85.40;;;40.15;;
26181;SDS011;13927;51.534;11.866;2023-02-08T06:21:19;91.80;;;38.70;;
26181;SDS011;13927;51.534;11.866;2023-02-08T06:23:45;98.20;;;38.22;;
26181;SDS011;13927;51.534;11.866;2023-02-08T06:26:11;91.90;;;40.22;;
26181;SDS011;13927;51.534;11.866;2023-02-08T06:28:36;96.07;;;40.70;;
26181;SDS011;13927;51.534;11.866;2023-02-08T06:31:02;93.53;;;38.67;;
26181;SDS011;13927;51.534;11.866;2023-02-08T06:33:28;100.25;;;40.85;;
26181;SDS011;13927;51.534;11.866;2023-02-08T06:35:54;92.05;;;40.97;;
26181;SDS011;13927;51.534;11.866;2023-02-08T06:38:19;91.43;;;38.70;;
26181;SDS011;13927;51.534;11.866;2023-02-08T06:40:46;85.25;;;38.45;;
26181;SDS011;13927;51.534;11.866;2023-02-08T06:43:13;87.00;;;39.33;;
26181;SDS011;13927;51.534;11.866;2023-02-08T06:45:39;93.18;;;40.90;;
26181;SDS011;13927;51.534;11.866;2023-02-08T06:48:06;92.63;;;40.53;;
26181;SDS011;13927;51.534;11.866;2023-02-08T06:50:32;97.35;;;40.25;;
26181;SDS011;13927;51.534;11.866;2023-02-08T06:52:58;103.13;;;41.72;;
26181;SDS011;13927;51.534;11.866;2023-02-08T06:55:23;94.55;;;39.25;;
26181;SDS011;13927;51.534;11.866;2023-02-08T06:57:52;95.85;;;39.00;;
26181;SDS011;13927;51.534;11.866;2023-02-08T07:00:18;102.18;;;42.20;;
26181;SDS011;13927;51.534;11.866;2023-02-08T07:02:44;90.05;;;38.30;;
26181;SDS011;13927;51.534;11.866;2023-02-08T07:05:11;87.05;;;38.80;;
26181;SDS011;13927;51.534;11.866;2023-02-08T07:07:37;98.40;;;40.13;;
26181;SDS011;13927;51.534;11.866;2023-02-08T07:10:03;87.00;;;37.70;;
26181;SDS011;13927;51.534;11.866;2023-02-08T07:12:33;96.72;;;39.60;;
26181;SDS011;13927;51.534;11.866;2023-02-08T07:15:01;94.10;;;39.83;;
26181;SDS011;13927;51.534;11.866;2023-02-08T07:17:27;99.60;;;40.15;;
26181;SDS011;13927;51.534;11.866;2023-02-08T07:19:53;94.25;;;41.78;;
26181;SDS011;13927;51.534;11.866;2023-02-08T07:22:18;90.55;;;38.80;;
26181;SDS011;13927;51.534;11.866;2023-02-08T07:24:44;88.03;;;38.97;;
26181;SDS011;13927;51.534;11.866;2023-02-08T07:27:10;87.97;;;39.17;;
26181;SDS011;13927;51.534;11.866;2023-02-08T07:29:37;97.60;;;42.35;;
26181;SDS011;13927;51.534;11.866;2023-02-08T07:32:04;86.47;;;39.85;;
26181;SDS011;13927;51.534;11.866;2023-02-08T07:34:33;84.00;;;39.38;;
26181;SDS011;13927;51.534;11.866;2023-02-08T07:37:01;89.32;;;38.53;;
26181;SDS011;13927;51.534;11.866;2023-02-08T07:39:28;91.53;;;38.03;;
26181;SDS011;13927;51.534;11.866;2023-02-08T07:41:55;88.18;;;41.20;;
26181;SDS011;13927;51.534;11.866;2023-02-08T07:44:21;87.85;;;42.42;;
26181;SDS011;13927;51.534;11.866;2023-02-08T07:46:47;86.30;;;40.25;;
26181;SDS011;13927;51.534;11.866;2023-02-08T07:49:13;91.35;;;40.25;;
26181;SDS011;13927;51.534;11.866;2023-02-08T07:51:39;86.57;;;38.72;;
26181;SDS011;13927;51.534;11.866;2023-02-08T07:54:04;86.28;;;40.50;;
26181;SDS011;13927;51.534;11.866;2023-02-08T07:56:30;90.07;;;40.67;;
26181;SDS011;13927;51.534;11.866;2023-02-08T07:58:56;83.55;;;38.72;;
26181;SDS011;13927;51.534;11.866;2023-02-08T08:01:22;93.97;;;41.40;;
26181;SDS011;13927;51.534;11.866;2023-02-08T08:03:48;88.53;;;41.22;;
26181;SDS011;13927;51.534;11.866;2023-02-08T08:06:15;91.95;;;41.22;;
26181;SDS011;13927;51.534;11.866;2023-02-08T08:08:42;81.47;;;39.40;;
26181;SDS011;13927;51.534;11.866;2023-02-08T08:11:11;92.13;;;43.70;;
26181;SDS011;13927;51.534;11.866;2023-02-08T08:13:40;92.25;;;40.55;;
26181;SDS011;13927;51.534;11.866;2023-02-08T08:16:06;90.85;;;39.22;;
26181;SDS011;13927;51.534;11.866;2023-02-08T08:18:32;94.78;;;43.15;;
26181;SDS011;13927;51.534;11.866;2023-02-08T08:20:57;91.28;;;41.63;;
26181;SDS011;13927;51.534;11.866;2023-02-08T08:23:23;88.07;;;41.47;;
26181;SDS011;13927;51.534;11.866;2023-02-08T08:25:49;95.07;;;41.65;;
26181;SDS011;13927;51.534;11.866;2023-02-08T08:28:15;93.32;;;41.95;;
26181;SDS011;13927;51.534;11.866;2023-02-08T08:30:41;90.63;;;40.80;;
26181;SDS011;13927;51.534;11.866;2023-02-08T08:33:08;85.50;;;39.55;;
26181;SDS011;13927;51.534;11.866;2023-02-08T08:35:35;86.22;;;40.90;;
26181;SDS011;13927;51.534;11.866;2023-02-08T08:38:00;98.55;;;42.97;;
26181;SDS011;13927;51.534;11.866;2023-02-08T08:40:26;82.25;;;38.47;;
26181;SDS011;13927;51.534;11.866;2023-02-08T08:42:52;85.50;;;41.53;;
26181;SDS011;13927;51.534;11.866;2023-02-08T08:45:17;87.65;;;40.60;;
26181;SDS011;13927;51.534;11.866;2023-02-08T08:47:43;89.05;;;41.70;;
26181;SDS011;13927;51.534;11.866;2023-02-08T08:50:09;93.97;;;41.53;;
26181;SDS011;13927;51.534;11.866;2023-02-08T08:52:35;83.50;;;40.97;;
26181;SDS011;13927;51.534;11.866;2023-02-08T08:55:00;83.28;;;40.80;;
26181;SDS011;13927;51.534;11.866;2023-02-08T08:57:26;94.15;;;43.75;;
26181;SDS011;13927;51.534;11.866;2023-02-08T08:59:52;96.82;;;42.65;;
26181;SDS011;13927;51.534;11.866;2023-02-08T09:02:17;82.07;;;42.28;;
26181;SDS011;13927;51.534;11.866;2023-02-08T09:04:43;93.50;;;43.60;;
26181;SDS011;13927;51.534;11.866;2023-02-08T09:07:09;92.70;;;42.65;;
26181;SDS011;13927;51.534;11.866;2023-02-08T09:09:35;87.50;;;41.85;;
26181;SDS011;13927;51.534;11.866;2023-02-08T09:12:02;90.05;;;41.38;;
26181;SDS011;13927;51.534;11.866;2023-02-08T09:14:28;79.28;;;41.70;;
26181;SDS011;13927;51.534;11.866;2023-02-08T09:16:54;89.53;;;43.45;;
26181;SDS011;13927;51.534;11.866;2023-02-08T09:19:20;88.95;;;41.92;;
26181;SDS011;13927;51.534;11.866;2023-02-08T09:21:45;89.65;;;42.58;;
26181;SDS011;13927;51.534;11.866;2023-02-08T09:24:11;87.13;;;41.88;;
26181;SDS011;13927;51.534;11.866;2023-02-08T09:26:37;87.03;;;41.40;;
26181;SDS011;13927;51.534;11.866;2023-02-08T09:29:04;87.88;;;41.85;;
26181;SDS011;13927;51.534;11.866;2023-02-08T09:31:31;86.40;;;43.30;;
26181;SDS011;13927;51.534;11.866;2023-02-08T09:34:03;91.70;;;42.90;;
26181;SDS011;13927;51.534;11.866;2023-02-08T09:36:31;83.60;;;41.08;;
26181;SDS011;13927;51.534;11.866;2023-02-08T09:39:07;92.05;;;44.20;;
26181;SDS011;13927;51.534;11.866;2023-02-08T09:50:05;86.10;;;44.13;;
26181;SDS011;13927;51.534;11.866;2023-02-08T09:52:53;77.50;;;42.70;;
26181;SDS011;13927;51.534;11.866;2023-02-08T09:55:28;77.85;;;41.72;;
26181;SDS011;13927;51.534;11.866;2023-02-08T09:58:01;77.53;;;40.13;;
26181;SDS011;13927;51.534;11.866;2023-02-08T10:00:40;81.80;;;41.60;;
26181;SDS011;13927;51.534;11.866;2023-02-08T10:06:09;70.15;;;37.97;;
26181;SDS011;13927;51.534;11.866;2023-02-08T10:08:39;70.35;;;38.97;;
26181;SDS011;13927;51.534;11.866;2023-02-08T10:19:36;65.78;;;38.15;;
26181;SDS011;13927;51.534;11.866;2023-02-08T10:23:01;66.82;;;37.60;;
26181;SDS011;13927;51.534;11.866;2023-02-08T10:35:45;65.95;;;37.53;;
26181;SDS011;13927;51.534;11.866;2023-02-08T10:37:51;65.75;;;38.35;;
26181;SDS011;13927;51.534;11.866;2023-02-08T10:40:23;64.40;;;37.63;;
26181;SDS011;13927;51.534;11.866;2023-02-08T10:45:53;72.65;;;41.35;;
26181;SDS011;13927;51.534;11.866;2023-02-08T10:48:47;71.40;;;38.00;;
26181;SDS011;13927;51.534;11.866;2023-02-08T10:51:17;77.40;;;37.78;;
26181;SDS011;13927;51.534;11.866;2023-02-08T10:53:44;77.55;;;40.38;;
26181;SDS011;13927;51.534;11.866;2023-02-08T10:56:34;78.95;;;41.67;;
26181;SDS011;13927;51.534;11.866;2023-02-08T10:59:19;74.88;;;41.22;;
26181;SDS011;13927;51.534;11.866;2023-02-08T11:02:00;71.30;;;40.80;;
26181;SDS011;13927;51.534;11.866;2023-02-08T11:04:27;70.63;;;38.67;;
26181;SDS011;13927;51.534;11.866;2023-02-08T11:06:53;77.70;;;41.42;;
26181;SDS011;13927;51.534;11.866;2023-02-08T11:09:23;73.72;;;41.42;;
26181;SDS011;13927;51.534;11.866;2023-02-08T11:11:54;74.43;;;41.90;;
26181;SDS011;13927;51.534;11.866;2023-02-08T11:14:24;75.15;;;42.95;;
26181;SDS011;13927;51.534;11.866;2023-02-08T11:16:56;71.65;;;39.15;;
26181;SDS011;13927;51.534;11.866;2023-02-08T11:19:30;71.80;;;38.67;;
26181;SDS011;13927;51.534;11.866;2023-02-08T11:22:01;69.10;;;39.88;;
26181;SDS011;13927;51.534;11.866;2023-02-08T11:24:32;67.95;;;37.92;;
26181;SDS011;13927;51.534;11.866;2023-02-08T11:30:16;64.88;;;38.10;;
26181;SDS011;13927;51.534;11.866;2023-02-08T11:32:48;67.43;;;37.77;;
26181;SDS011;13927;51.534;11.866;2023-02-08T11:35:39;67.97;;;39.42;;
26181;SDS011;13927;51.534;11.866;2023-02-08T11:38:05;67.57;;;38.00;;
26181;SDS011;13927;51.534;11.866;2023-02-08T11:40:42;61.15;;;34.83;;
26181;SDS011;13927;51.534;11.866;2023-02-08T11:43:21;66.78;;;38.53;;
26181;SDS011;13927;51.534;11.866;2023-02-08T11:45:51;66.53;;;37.30;;
26181;SDS011;13927;51.534;11.866;2023-02-08T11:51:02;59.00;;;35.50;;
26181;SDS011;13927;51.534;11.866;2023-02-08T11:53:30;61.92;;;35.97;;
26181;SDS011;13927;51.534;11.866;2023-02-08T11:56:13;61.03;;;34.83;;
26181;SDS011;13927;51.534;11.866;2023-02-08T11:58:53;59.75;;;35.63;;
26181;SDS011;13927;51.534;11.866;2023-02-08T12:01:31;56.50;;;34.78;;
26181;SDS011;13927;51.534;11.866;2023-02-08T12:04:06;61.53;;;36.55;;
26181;SDS011;13927;51.534;11.866;2023-02-08T12:24:47;55.00;;;34.35;;
26181;SDS011;13927;51.534;11.866;2023-02-08T12:28:08;51.67;;;33.25;;
26181;SDS011;13927;51.534;11.866;2023-02-08T12:36:51;51.28;;;31.95;;
26181;SDS011;13927;51.534;11.866;2023-02-08T12:39:55;50.45;;;33.17;;
26181;SDS011;13927;51.534;11.866;2023-02-08T12:54:32;46.33;;;31.98;;
26181;SDS011;13927;51.534;11.866;2023-02-08T12:57:13;45.33;;;31.73;;
26181;SDS011;13927;51.534;11.866;2023-02-08T12:59:48;51.55;;;33.38;;
26181;SDS011;13927;51.534;11.866;2023-02-08T13:02:20;51.85;;;33.35;;
26181;SDS011;13927;51.534;11.866;2023-02-08T13:05:14;46.92;;;31.23;;
26181;SDS011;13927;51.534;11.866;2023-02-08T13:07:43;50.70;;;34.50;;
26181;SDS011;13927;51.534;11.866;2023-02-08T13:10:19;51.97;;;34.83;;
26181;SDS011;13927;51.534;11.866;2023-02-08T13:13:07;46.75;;;31.63;;
26181;SDS011;13927;51.534;11.866;2023-02-08T13:18:28;47.33;;;32.90;;
26181;SDS011;13927;51.534;11.866;2023-02-08T13:21:05;51.78;;;36.30;;
26181;SDS011;13927;51.534;11.866;2023-02-08T13:23:56;55.40;;;35.38;;
26181;SDS011;13927;51.534;11.866;2023-02-08T13:26:27;55.90;;;37.03;;
26181;SDS011;13927;51.534;11.866;2023-02-08T13:28:58;49.90;;;33.03;;
26181;SDS011;13927;51.534;11.866;2023-02-08T13:31:40;59.35;;;38.10;;
26181;SDS011;13927;51.534;11.866;2023-02-08T13:34:14;56.70;;;37.20;;
26181;SDS011;13927;51.534;11.866;2023-02-08T13:36:52;57.17;;;38.65;;
26181;SDS011;13927;51.534;11.866;2023-02-08T13:39:36;53.55;;;37.03;;
26181;SDS011;13927;51.534;11.866;2023-02-08T13:42:18;55.60;;;36.97;;
26181;SDS011;13927;51.534;11.866;2023-02-08T13:44:53;52.88;;;38.08;;
26181;SDS011;13927;51.534;11.866;2023-02-08T13:47:26;52.80;;;36.25;;
26181;SDS011;13927;51.534;11.866;2023-02-08T13:49:57;53.88;;;35.97;;
26181;SDS011;13927;51.534;11.866;2023-02-08T14:03:21;42.35;;;30.52;;
26181;SDS011;13927;51.534;11.866;2023-02-08T14:06:05;44.88;;;30.98;;
26181;SDS011;13927;51.534;11.866;2023-02-08T14:16:36;40.97;;;30.17;;
26181;SDS011;13927;51.534;11.866;2023-02-08T14:21:44;42.28;;;30.73;;
26181;SDS011;13927;51.534;11.866;2023-02-08T14:24:23;42.88;;;29.70;;
26181;SDS011;13927;51.534;11.866;2023-02-08T14:32:47;37.60;;;25.40;;
26181;SDS011;13927;51.534;11.866;2023-02-08T14:35:18;31.45;;;24.48;;
26181;SDS011;13927;51.534;11.866;2023-02-08T14:37:48;33.13;;;23.23;;
26181;SDS011;13927;51.534;11.866;2023-02-08T14:40:48;31.55;;;23.00;;
26181;SDS011;13927;51.534;11.866;2023-02-08T14:45:43;32.90;;;23.52;;
26181;SDS011;13927;51.534;11.866;2023-02-08T14:53:38;36.28;;;26.30;;
26181;SDS011;13927;51.534;11.866;2023-02-08T14:56:26;37.35;;;26.33;;
26181;SDS011;13927;51.534;11.866;2023-02-08T14:59:06;34.22;;;25.55;;
26181;SDS011;13927;51.534;11.866;2023-02-08T15:04:21;34.20;;;26.00;;
26181;SDS011;13927;51.534;11.866;2023-02-08T15:09:47;34.33;;;25.10;;
26181;SDS011;13927;51.534;11.866;2023-02-08T15:12:14;35.80;;;26.85;;
26181;SDS011;13927;51.534;11.866;2023-02-08T15:14:51;37.88;;;26.35;;
26181;SDS011;13927;51.534;11.866;2023-02-08T15:17:21;36.10;;;25.88;;
26181;SDS011;13927;51.534;11.866;2023-02-08T15:20:00;35.53;;;26.13;;
26181;SDS011;13927;51.534;11.866;2023-02-08T15:22:32;35.45;;;24.98;;
26181;SDS011;13927;51.534;11.866;2023-02-08T15:25:23;33.67;;;24.80;;
26181;SDS011;13927;51.534;11.866;2023-02-08T15:27:50;31.92;;;23.45;;
26181;SDS011;13927;51.534;11.866;2023-02-08T15:30:21;31.65;;;22.45;;
26181;SDS011;13927;51.534;11.866;2023-02-08T15:33:09;31.83;;;23.38;;
26181;SDS011;13927;51.534;11.866;2023-02-08T15:35:41;29.70;;;22.20;;
26181;SDS011;13927;51.534;11.866;2023-02-08T15:38:12;30.83;;;22.55;;
26181;SDS011;13927;51.534;11.866;2023-02-08T15:40:43;28.10;;;21.52;;
26181;SDS011;13927;51.534;11.866;2023-02-08T15:43:29;29.67;;;22.60;;
26181;SDS011;13927;51.534;11.866;2023-02-08T15:45:57;28.88;;;22.98;;
26181;SDS011;13927;51.534;11.866;2023-02-08T15:48:26;29.52;;;20.85;;
26181;SDS011;13927;51.534;11.866;2023-02-08T15:51:00;30.13;;;21.58;;
26181;SDS011;13927;51.534;11.866;2023-02-08T15:53:27;33.47;;;22.65;;
26181;SDS011;13927;51.534;11.866;2023-02-08T15:55:56;30.88;;;21.60;;
26181;SDS011;13927;51.534;11.866;2023-02-08T15:58:30;31.00;;;21.40;;
26181;SDS011;13927;51.534;11.866;2023-02-08T16:01:01;32.63;;;21.92;;
26181;SDS011;13927;51.534;11.866;2023-02-08T16:03:29;35.28;;;23.48;;
26181;SDS011;13927;51.534;11.866;2023-02-08T16:05:57;34.72;;;24.02;;
26181;SDS011;13927;51.534;11.866;2023-02-08T16:08:28;36.45;;;23.92;;
26181;SDS011;13927;51.534;11.866;2023-02-08T16:11:14;35.45;;;23.95;;
26181;SDS011;13927;51.534;11.866;2023-02-08T16:13:48;36.40;;;24.75;;
26181;SDS011;13927;51.534;11.866;2023-02-08T16:22:20;40.20;;;25.52;;
26181;SDS011;13927;51.534;11.866;2023-02-08T16:28:33;41.22;;;25.45;;
26181;SDS011;13927;51.534;11.866;2023-02-08T16:31:00;39.15;;;24.80;;
26181;SDS011;13927;51.534;11.866;2023-02-08T16:33:28;39.33;;;25.23;;
26181;SDS011;13927;51.534;11.866;2023-02-08T16:35:56;43.63;;;27.95;;
26181;SDS011;13927;51.534;11.866;2023-02-08T16:38:26;40.88;;;27.40;;
26181;SDS011;13927;51.534;11.866;2023-02-08T16:40:56;45.35;;;28.65;;
26181;SDS011;13927;51.534;11.866;2023-02-08T16:43:36;45.03;;;29.02;;
26181;SDS011;13927;51.534;11.866;2023-02-08T16:46:18;46.90;;;29.25;;
26181;SDS011;13927;51.534;11.866;2023-02-08T16:48:54;47.03;;;29.02;;
26181;SDS011;13927;51.534;11.866;2023-02-08T16:51:26;49.25;;;30.88;;
26181;SDS011;13927;51.534;11.866;2023-02-08T16:53:55;42.80;;;28.48;;
26181;SDS011;13927;51.534;11.866;2023-02-08T16:56:36;56.40;;;33.50;;
26181;SDS011;13927;51.534;11.866;2023-02-08T16:59:02;59.58;;;34.30;;
26181;SDS011;13927;51.534;11.866;2023-02-08T17:01:28;55.28;;;32.95;;
26181;SDS011;13927;51.534;11.866;2023-02-08T17:03:54;66.47;;;36.25;;
26181;SDS011;13927;51.534;11.866;2023-02-08T17:08:59;67.03;;;38.88;;
26181;SDS011;13927;51.534;11.866;2023-02-08T17:11:27;69.00;;;40.65;;
26181;SDS011;13927;51.534;11.866;2023-02-08T17:13:53;79.90;;;44.70;;
26181;SDS011;13927;51.534;11.866;2023-02-08T17:16:22;97.25;;;50.15;;